Time;durP1;ratioP1;P1;durP2;ratioP2;P2;SDS_P1;SDS_P2;PMS_P1;PMS_P2;Temp;Humidity;BMP_temperature;BMP_pressure;BME280_temperature;BME280_humidity;BME280_pressure;Samples;Min_cycle;Max_cycle;Signal;HPM_P1;HPM_P2
2021/12/31 00:00:28;;;;;;;5.90;3.53;;;15.70;87.60;;;18.37;63.67;101324.59;4863607;29;20197;-63
2021/12/31 00:02:55;;;;;;;7.70;4.10;;;15.70;87.60;;;18.38;63.71;101318.22;4863183;29;20216;-63
2021/12/31 00:05:25;;;;;;;9.40;3.47;;;15.70;87.30;;;18.40;63.42;101326.03;4863633;29;20204;-63
2021/12/31 00:07:52;;;;;;;5.90;3.30;;;15.70;87.10;;;18.38;63.51;101320.88;4863425;29;20197;-63
2021/12/31 00:10:19;;;;;;;4.13;2.80;;;15.70;86.70;;;18.39;63.32;101317.19;4863255;29;20192;-63
2021/12/31 00:12:47;;;;;;;5.97;3.63;;;15.80;86.60;;;18.39;63.18;101322.53;4863332;29;20597;-63
2021/12/31 00:15:14;;;;;;;6.77;3.43;;;15.80;86.40;;;18.40;63.01;101324.16;4863604;29;20235;-63
2021/12/31 00:17:42;;;;;;;4.17;2.90;;;15.80;85.90;;;18.40;62.62;101334.81;4863576;29;20216;-63
2021/12/31 00:20:15;;;;;;;4.80;3.20;;;15.80;85.70;;;18.41;62.70;101331.13;4863201;29;20207;-63
2021/12/31 00:25:12;;;;;;;6.77;3.37;;;15.80;85.40;;;18.40;62.52;101324.16;4863237;29;20701;-63
2021/12/31 00:27:40;;;;;;;8.77;3.20;;;15.80;85.00;;;18.40;62.05;101326.81;4862969;29;20211;-63
2021/12/31 00:30:10;;;;;;;6.83;3.33;;;15.80;84.70;;;18.41;62.12;101331.13;4863174;29;20280;-63
2021/12/31 00:32:37;;;;;;;5.43;2.83;;;15.80;84.70;;;18.43;62.03;101323.72;4862624;29;20224;-63
2021/12/31 00:35:06;;;;;;;6.43;3.23;;;15.80;84.60;;;18.45;62.04;101327.00;4863335;29;20283;-63
2021/12/31 00:37:36;;;;;;;7.40;3.47;;;15.80;84.40;;;18.45;61.64;101321.66;4861832;29;20228;-63
2021/12/31 00:40:09;;;;;;;9.13;3.40;;;15.80;84.20;;;18.45;61.30;101321.66;4863945;29;20208;-64
2021/12/31 00:42:37;;;;;;;8.17;3.17;;;15.80;84.10;;;18.44;61.76;101330.72;4863061;29;20219;-63
2021/12/31 00:45:07;;;;;;;6.03;3.20;;;15.80;84.10;;;18.45;61.93;101344.84;4863200;29;20212;-63
2021/12/31 00:47:35;;;;;;;5.57;3.30;;;15.80;84.10;;;18.44;61.53;101337.88;4863291;29;20508;-63
2021/12/31 00:50:03;;;;;;;4.73;2.97;;;15.80;83.60;;;18.44;61.33;101325.38;4863039;29;20197;-63
2021/12/31 00:52:31;;;;;;;6.47;3.30;;;15.80;83.80;;;18.47;61.50;101340.16;4862231;29;20196;-63
2021/12/31 00:54:59;;;;;;;7.27;3.20;;;15.80;83.60;;;18.46;61.14;101331.34;4862964;29;20717;-63
2021/12/31 00:57:27;;;;;;;8.30;3.13;;;15.80;83.50;;;18.47;61.03;101330.31;4862811;29;20227;-62
2021/12/31 00:59:55;;;;;;;8.13;3.87;;;15.80;83.70;;;18.46;60.95;101334.00;4862130;29;20595;-63
2021/12/31 01:02:25;;;;;;;7.30;3.20;;;15.80;83.40;;;18.46;60.74;101328.69;4864010;29;20197;-63
2021/12/31 01:04:53;;;;;;;5.93;3.60;;;15.80;83.30;;;18.43;61.10;101326.41;4862966;29;20213;-63
2021/12/31 01:07:21;;;;;;;4.57;2.87;;;15.80;83.10;;;18.44;60.85;101320.06;4862845;29;20201;-62
2021/12/31 01:09:48;;;;;;;8.73;3.60;;;15.80;83.30;;;18.46;60.64;101319.88;4862701;29;20197;-62
2021/12/31 01:12:16;;;;;;;4.47;2.70;;;15.80;83.10;;;18.47;60.55;101319.63;4861678;29;20284;-63
2021/12/31 01:15:05;;;;;;;4.13;2.83;;;15.80;83.10;;;18.47;60.75;101330.31;4861809;29;20601;-63
2021/12/31 01:18:14;;;;;;;7.40;3.20;;;15.80;83.10;;;18.46;60.91;101328.69;4844139;29;20217;-63
2021/12/31 01:20:33;;;;;;;6.33;2.93;;;15.80;82.90;;;18.45;60.75;101337.66;4848251;29;20722;-63
2021/12/31 01:23:00;;;;;;;5.40;3.17;;;15.80;82.70;;;18.45;60.64;101335.00;4862287;29;20244;-63
2021/12/31 01:25:28;;;;;;;5.93;3.37;;;15.80;82.70;;;18.46;60.52;101320.69;4862345;29;20199;-63
2021/12/31 01:27:55;;;;;;;3.20;2.60;;;15.80;82.70;;;18.46;60.51;101323.34;4862564;29;20197;-63
2021/12/31 01:30:24;;;;;;;4.03;2.47;;;15.80;82.80;;;18.49;60.51;101330.94;4862485;29;20275;-63
2021/12/31 01:32:52;;;;;;;8.17;3.07;;;15.80;82.70;;;18.47;60.38;101324.19;4861587;29;20567;-63
2021/12/31 01:35:19;;;;;;;5.63;3.03;;;15.80;82.50;;;18.46;60.32;101339.34;4862034;29;20193;-63
2021/12/31 01:37:46;;;;;;;7.53;3.33;;;15.80;83.20;;;18.48;60.47;101353.28;4862168;29;20341;-63
2021/12/31 01:40:14;;;;;;;6.10;2.90;;;15.80;82.50;;;18.48;60.25;101342.63;4862217;29;20200;-63
2021/12/31 01:42:42;;;;;;;4.10;2.77;;;15.80;82.50;;;18.48;60.27;101339.94;4860506;29;20657;-63
2021/12/31 01:45:15;;;;;;;4.53;2.80;;;15.80;82.20;;;18.46;60.17;101343.84;4862100;29;20201;-63
2021/12/31 01:50:26;;;;;;;6.93;3.27;;;15.90;82.00;;;18.46;60.15;101344.69;4861874;29;20243;-63
2021/12/31 01:52:54;;;;;;;4.07;2.50;;;15.90;81.90;;;18.48;59.78;101352.47;4861806;29;20224;-63
2021/12/31 01:55:26;;;;;;;5.60;2.83;;;15.80;81.70;;;18.48;60.09;101347.94;4861745;29;20196;-63
2021/12/31 01:57:55;;;;;;;5.07;2.37;;;15.90;81.80;;;18.52;59.99;101357.16;4860752;29;20239;-63
2021/12/31 02:00:23;;;;;;;3.87;2.40;;;15.90;81.60;;;18.53;59.57;101349.97;4861617;29;20197;-63
2021/12/31 02:02:52;;;;;;;4.93;2.53;;;15.90;81.60;;;18.54;59.57;101365.75;4861155;29;20254;-63
2021/12/31 02:05:20;;;;;;;7.73;2.20;;;15.90;81.40;;;18.55;59.75;101364.75;4856972;29;20224;-63
2021/12/31 02:07:47;;;;;;;7.10;2.30;;;15.90;81.30;;;18.57;59.79;101373.34;4861438;29;20719;-64
2021/12/31 02:10:15;;;;;;;5.90;2.07;;;15.90;81.20;;;18.59;59.46;101376.59;4862106;29;20204;-63
2021/12/31 02:12:46;;;;;;;3.67;2.80;;;15.90;81.10;;;18.59;59.40;101365.94;4861322;29;20279;-62
2021/12/31 02:15:15;;;;;;;4.67;2.17;;;15.90;80.80;;;18.56;59.43;101366.38;4861843;29;20204;-63
2021/12/31 02:17:44;;;;;;;8.00;2.70;;;15.90;80.70;;;18.54;58.97;101363.09;4861455;29;20220;-63
2021/12/31 02:20:14;;;;;;;6.10;2.13;;;15.90;80.50;;;18.55;59.27;101367.41;4860290;29;20202;-63
2021/12/31 02:22:51;;;;;;;6.57;2.40;;;15.90;80.70;;;18.56;59.07;101366.38;4860056;29;20209;-63
2021/12/31 02:25:20;;;;;;;4.87;2.37;;;15.90;80.40;;;18.57;59.26;101376.00;4861558;29;20659;-63
2021/12/31 02:27:47;;;;;;;8.10;2.43;;;16.00;80.60;;;18.59;59.12;101381.16;4861276;29;20212;-63
2021/12/31 02:30:15;;;;;;;8.00;3.40;;;15.90;80.50;;;18.60;58.65;101378.25;4861174;29;20634;-64
2021/12/31 02:32:42;;;;;;;6.67;2.40;;;15.90;80.10;;;18.60;58.88;101372.94;4860530;29;20228;-63
2021/12/31 02:35:12;;;;;;;6.80;2.47;;;16.00;80.40;;;18.59;58.81;101376.59;4861059;29;20222;-64
2021/12/31 02:37:40;;;;;;;6.20;2.30;;;15.90;80.10;;;18.55;58.62;101372.75;4860785;29;20688;-63
2021/12/31 02:40:13;;;;;;;5.67;2.40;;;15.90;80.10;;;18.54;58.75;101363.09;4861217;29;20280;-63
2021/12/31 02:42:41;;;;;;;6.07;2.70;;;16.00;80.10;;;18.57;59.18;101361.84;4860730;29;20234;-63
2021/12/31 02:45:11;;;;;;;3.30;2.13;;;16.00;80.20;;;18.60;58.64;101361.44;4861063;29;20234;-64
2021/12/31 02:47:45;;;;;;;6.17;2.63;;;16.00;80.20;;;18.63;58.68;101367.19;4860828;29;20229;-63
2021/12/31 02:50:18;;;;;;;6.27;2.30;;;16.00;80.20;;;18.62;58.76;101360.19;4861345;29;20537;-63
2021/12/31 02:52:47;;;;;;;5.17;2.37;;;16.00;80.20;;;18.63;59.06;101356.50;4860462;29;20237;-63
2021/12/31 02:55:17;;;;;;;2.20;1.90;;;16.00;80.10;;;18.65;58.54;101362.44;4861048;29;20730;-63
2021/12/31 02:57:46;;;;;;;3.57;2.07;;;16.00;80.00;;;18.65;58.66;101351.78;4861618;29;20236;-63
2021/12/31 03:00:15;;;;;;;6.27;2.67;;;16.00;79.90;;;18.67;58.58;101356.88;4860977;29;20531;-63
2021/12/31 03:02:43;;;;;;;3.30;1.93;;;16.00;80.10;;;18.67;58.79;101357.72;4860266;29;20201;-63
2021/12/31 03:05:11;;;;;;;4.47;2.20;;;16.00;79.90;;;18.66;58.62;101358.72;4860841;29;20227;-63
2021/12/31 03:07:45;;;;;;;5.53;2.70;;;16.00;79.90;;;18.66;58.51;101340.06;4860656;29;20204;-63
2021/12/31 03:10:14;;;;;;;6.47;2.47;;;16.00;79.80;;;18.68;58.79;101351.38;4860189;29;20242;-63
2021/12/31 03:12:42;;;;;;;5.97;2.27;;;16.00;79.70;;;18.70;58.52;101345.81;4860409;29;20192;-63
2021/12/31 03:15:11;;;;;;;8.20;3.60;;;16.00;79.60;;;18.70;58.21;101333.28;4860735;29;20633;-63
2021/12/31 03:17:41;;;;;;;3.70;2.00;;;16.00;79.50;;;18.71;58.19;101334.91;4860849;29;20200;-63
2021/12/31 03:20:26;;;;;;;9.03;2.33;;;16.10;79.60;;;18.72;58.50;101344.56;4859436;29;20738;-63
2021/12/31 03:22:54;;;;;;;4.30;2.37;;;16.10;79.50;;;18.73;58.70;101346.19;4865282;29;20235;-63
2021/12/31 03:25:22;;;;;;;5.70;2.10;;;16.10;79.60;;;18.73;58.22;101343.50;4866084;29;20215;-63
2021/12/31 03:27:50;;;;;;;8.83;2.63;;;16.10;79.60;;;18.75;58.30;101343.31;4866593;29;20326;-63
2021/12/31 03:30:18;;;;;;;6.93;2.77;;;16.10;79.40;;;18.75;58.32;101346.81;4866430;29;20643;-63
2021/12/31 03:32:46;;;;;;;4.70;2.30;;;16.10;79.40;;;18.76;58.27;101347.59;4866205;29;20200;-63
2021/12/31 03:35:13;;;;;;;5.03;2.70;;;16.10;79.40;;;18.75;58.26;101349.47;4865820;29;20215;-63
2021/12/31 03:37:41;;;;;;;7.87;3.07;;;16.10;79.30;;;18.74;58.31;101349.69;4866510;29;20209;-63
2021/12/31 03:40:12;;;;;;;3.73;1.87;;;16.10;79.20;;;18.71;58.25;101339.41;4866538;29;20279;-63
2021/12/31 03:42:40;;;;;;;5.73;2.30;;;16.10;79.30;;;18.72;58.57;101344.56;4865743;29;20200;-64
2021/12/31 03:45:09;;;;;;;4.80;2.30;;;16.10;79.30;;;18.72;58.41;101335.75;4866522;29;20271;-63
2021/12/31 03:47:36;;;;;;;3.40;2.17;;;16.10;79.30;;;18.72;58.40;101344.56;4866635;29;20189;-63
2021/12/31 03:50:05;;;;;;;4.77;2.20;;;16.10;79.40;;;18.74;58.33;101347.84;4866624;29;20271;-63
2021/12/31 03:52:37;;;;;;;6.73;2.47;;;16.10;79.20;;;18.72;58.50;101336.56;4866108;29;20204;-63
2021/12/31 03:55:07;;;;;;;3.97;1.90;;;16.10;79.30;;;18.74;58.49;101337.16;4866622;29;20224;-63
2021/12/31 03:57:36;;;;;;;6.07;2.80;;;16.10;79.30;;;18.76;58.50;101334.28;4866527;29;20241;-63
2021/12/31 04:00:06;;;;;;;5.43;2.70;;;16.10;79.30;;;18.76;58.39;101324.44;4866259;29;20216;-63
2021/12/31 04:02:34;;;;;;;3.43;2.50;;;16.10;79.40;;;18.80;58.35;101325.63;4866198;29;20645;-63
2021/12/31 04:05:03;;;;;;;5.57;2.27;;;16.10;79.40;;;18.78;58.01;101319.69;4866368;29;20207;-63
2021/12/31 04:07:31;;;;;;;4.90;2.40;;;16.10;79.40;;;18.78;58.13;101317.03;4866323;29;20207;-63
2021/12/31 04:09:58;;;;;;;6.23;2.70;;;16.10;79.50;;;18.78;58.25;101325.03;4865256;29;20200;-63
2021/12/31 04:12:26;;;;;;;8.97;3.07;;;16.10;79.60;;;18.78;58.22;101316.19;4865916;29;20287;-63
2021/12/31 04:14:54;;;;;;;7.13;2.93;;;16.10;79.70;;;18.75;58.38;101312.13;4866067;29;20209;-63
2021/12/31 04:17:22;;;;;;;5.13;3.23;;;16.00;79.70;;;18.75;58.41;101328.16;4865184;29;20676;-63
2021/12/31 04:19:54;;;;;;;3.47;2.60;;;16.00;79.70;;;18.73;58.61;101326.72;4865908;29;20623;-63
2021/12/31 04:22:25;;;;;;;5.00;2.63;;;16.00;79.90;;;18.73;58.63;101334.72;4865830;29;20208;-63
2021/12/31 04:24:52;;;;;;;3.40;2.97;;;16.00;80.00;;;18.71;58.45;101320.75;4866928;29;20204;-62
2021/12/31 04:27:22;;;;;;;5.67;3.37;;;16.00;80.00;;;18.71;58.57;101320.75;4866218;29;20472;-63
2021/12/31 04:29:53;;;;;;;3.93;3.13;;;16.00;80.10;;;18.67;58.74;101325.72;4866543;29;20197;-63
2021/12/31 04:32:23;;;;;;;6.57;2.83;;;16.00;80.20;;;18.68;58.78;101321.19;4865777;29;20200;-63
2021/12/31 04:34:51;;;;;;;6.57;3.33;;;16.00;80.20;;;18.70;58.98;101324.47;4862167;29;20227;-62
2021/12/31 04:37:18;;;;;;;4.37;3.20;;;16.00;80.30;;;18.67;58.97;101325.72;4863543;29;20683;-63
2021/12/31 04:39:46;;;;;;;5.77;3.53;;;16.00;80.40;;;18.65;59.07;101322.44;4863321;29;20232;-61
2021/12/31 04:42:13;;;;;;;5.23;4.03;;;16.00;80.20;;;18.61;59.41;101321.22;4863553;29;20200;-63
2021/12/31 04:44:40;;;;;;;6.13;3.70;;;16.00;80.30;;;18.60;59.29;101322.25;4863465;29;20307;-64
2021/12/31 04:47:08;;;;;;;4.33;3.10;;;16.00;80.40;;;18.62;59.29;101322.88;4863341;29;20639;-63
2021/12/31 04:49:36;;;;;;;4.00;2.93;;;16.00;80.50;;;18.62;59.11;101324.69;4863269;29;20554;-63
2021/12/31 04:52:04;;;;;;;3.43;2.93;;;16.00;80.60;;;18.60;59.50;101308.09;4863162;29;20229;-63
2021/12/31 04:54:32;;;;;;;4.17;3.63;;;16.00;80.70;;;18.61;59.22;101310.53;4862455;29;20625;-63
2021/12/31 04:57:00;;;;;;;5.50;4.07;;;16.00;80.80;;;18.62;59.29;101316.69;4863085;29;20216;-63
2021/12/31 04:59:27;;;;;;;8.53;4.17;;;16.00;80.90;;;18.59;59.36;101314.47;4860953;29;20213;-63
2021/12/31 05:01:54;;;;;;;5.60;3.17;;;16.00;80.80;;;18.58;59.71;101316.31;4862583;29;20205;-64
2021/12/31 05:04:22;;;;;;;4.33;3.83;;;16.00;80.90;;;18.61;59.45;101320.41;4862169;29;20221;-63
2021/12/31 05:06:51;;;;;;;4.70;3.90;;;16.00;81.00;;;18.63;59.62;101313.84;4862780;29;20711;-63
2021/12/31 05:09:18;;;;;;;5.60;4.23;;;16.00;81.10;;;18.63;59.49;101313.84;4862953;29;20193;-63
2021/12/31 05:11:46;;;;;;;6.50;4.00;;;15.90;81.00;;;18.65;59.25;101316.28;4862721;29;20204;-63
2021/12/31 05:14:13;;;;;;;4.30;3.93;;;16.00;81.20;;;18.66;59.19;101313.41;4862156;29;20216;-63
2021/12/31 05:16:41;;;;;;;4.30;3.67;;;15.90;81.10;;;18.68;59.37;101310.53;4862518;29;20284;-63
2021/12/31 05:19:08;;;;;;;5.30;3.60;;;15.90;81.20;;;18.69;59.64;101320.16;4862497;29;20216;-63
2021/12/31 05:21:35;;;;;;;4.30;3.93;;;15.90;81.20;;;18.68;59.42;101315.88;4862045;29;20219;-63
2021/12/31 05:24:05;;;;;;;6.23;4.50;;;16.00;81.20;;;18.66;59.33;101313.41;4861948;29;20243;-63
2021/12/31 05:26:32;;;;;;;4.63;4.07;;;15.90;81.10;;;18.65;59.20;101311.78;4862550;29;20204;-63
2021/12/31 05:29:01;;;;;;;7.40;4.10;;;15.90;81.20;;;18.65;59.65;101311.78;4862403;29;20275;-63
2021/12/31 05:31:29;;;;;;;7.50;5.40;;;15.90;81.20;;;18.65;59.40;101306.44;4862288;29;20579;-63
2021/12/31 05:33:56;;;;;;;7.10;5.33;;;15.90;81.20;;;18.67;59.47;101315.03;4861934;29;20221;-63
2021/12/31 05:36:24;;;;;;;5.07;4.00;;;15.90;81.20;;;18.69;59.32;101312.16;4862048;29;20239;-63
2021/12/31 05:38:51;;;;;;;5.87;4.00;;;16.00;81.30;;;18.70;59.20;101309.28;4862142;29;20690;-63
2021/12/31 05:41:20;;;;;;;4.33;3.93;;;15.90;81.20;;;18.70;59.25;101322.63;4862167;29;20203;-63
2021/12/31 05:43:47;;;;;;;5.87;4.40;;;16.00;81.20;;;18.71;59.06;101318.91;4861771;29;20220;-63
2021/12/31 05:46:16;;;;;;;4.87;3.60;;;16.00;81.10;;;18.71;59.24;101329.56;4860662;29;20208;-63
2021/12/31 05:48:44;;;;;;;3.60;3.30;;;16.00;81.10;;;18.71;59.13;101320.75;4862012;29;20204;-63
2021/12/31 05:51:12;;;;;;;4.27;3.83;;;16.00;81.00;;;18.72;59.08;101312.56;4861678;29;20203;-63
2021/12/31 05:53:39;;;;;;;4.93;3.70;;;16.00;80.90;;;18.74;59.10;101307.00;4860281;29;20291;-63
2021/12/31 05:56:06;;;;;;;4.47;4.07;;;16.00;80.80;;;18.73;58.99;101308.06;4861932;29;20192;-63
2021/12/31 05:58:35;;;;;;;7.50;3.63;;;16.00;80.60;;;18.69;58.94;101304.97;4860510;29;20280;-63
2021/12/31 06:01:02;;;;;;;5.40;4.30;;;16.00;80.50;;;18.68;59.28;101298.03;4861230;29;20280;-64
2021/12/31 06:03:30;;;;;;;4.10;3.70;;;16.00;80.50;;;18.69;58.97;101296.97;4861172;29;20220;-63
2021/12/31 06:05:57;;;;;;;5.13;3.67;;;16.00;80.50;;;18.70;59.10;101282.63;4861244;29;20622;-63
2021/12/31 06:08:24;;;;;;;4.63;3.60;;;16.00;80.40;;;18.71;59.08;101278.91;4860985;29;20212;-63
2021/12/31 06:10:52;;;;;;;4.13;2.93;;;16.00;80.30;;;18.72;58.72;101264.56;4861228;29;20201;-63
2021/12/31 06:13:21;;;;;;;3.87;3.33;;;16.00;81.10;;;18.72;59.06;101248.53;4860920;29;20220;-62
2021/12/31 06:15:56;;;;;;;4.77;3.57;;;16.00;81.00;;;18.71;58.86;101254.06;4861187;29;20216;-61
2021/12/31 06:18:23;;;;;;;4.27;3.50;;;16.10;80.00;;;18.70;58.82;101255.13;4861467;29;20620;-63
2021/12/31 06:20:51;;;;;;;4.47;3.43;;;16.10;79.90;;;18.70;58.86;101245.28;4861236;29;20213;-63
2021/12/31 06:23:18;;;;;;;3.97;3.10;;;16.10;80.10;;;18.71;59.06;101252.22;4860406;29;20223;-65
2021/12/31 06:25:46;;;;;;;4.97;3.23;;;16.00;79.80;;;18.71;58.73;101252.22;4860637;29;20201;-63
2021/12/31 06:28:13;;;;;;;5.43;3.87;;;16.10;79.80;;;18.73;58.73;101260.84;4861134;29;20268;-63
2021/12/31 06:30:41;;;;;;;3.53;3.23;;;16.00;79.90;;;18.70;58.82;101255.13;4859735;29;20613;-63
2021/12/31 06:33:09;;;;;;;6.73;3.50;;;16.10;79.90;;;18.72;58.76;101269.88;4860746;29;20589;-63
2021/12/31 06:35:37;;;;;;;4.40;3.43;;;16.10;79.80;;;18.75;58.81;101264.13;4860108;29;20286;-63
2021/12/31 06:38:06;;;;;;;4.07;3.20;;;16.10;80.10;;;18.77;58.60;101264.72;4860697;29;20200;-63
2021/12/31 06:40:35;;;;;;;4.57;3.27;;;16.10;79.70;;;18.76;58.70;101249.75;4860431;29;20226;-63
2021/12/31 06:43:03;;;;;;;4.87;3.83;;;16.10;79.60;;;18.79;58.55;101270.66;4860891;29;20221;-63
2021/12/31 06:45:30;;;;;;;4.30;2.97;;;16.10;79.60;;;18.81;58.41;101268.59;4861215;29;20622;-63
2021/12/31 06:47:58;;;;;;;3.40;3.10;;;16.10;79.40;;;18.80;58.43;101266.94;4860869;29;20197;-63
2021/12/31 06:50:30;;;;;;;3.53;3.23;;;16.20;79.40;;;18.80;58.26;101261.59;4860889;29;20191;-63
2021/12/31 06:52:57;;;;;;;7.10;3.47;;;16.20;79.30;;;18.82;58.25;101254.22;4860527;29;20216;-63
2021/12/31 06:55:25;;;;;;;3.47;3.10;;;16.20;79.20;;;18.86;58.39;101260.75;4860906;29;20283;-63
2021/12/31 06:57:53;;;;;;;6.70;3.07;;;16.20;79.10;;;18.86;58.23;101257.28;4859151;29;20201;-64
2021/12/31 07:00:20;;;;;;;3.53;2.90;;;16.20;79.00;;;18.87;58.22;101262.38;4861053;29;20217;-64
2021/12/31 07:02:47;;;;;;;4.07;2.90;;;16.20;79.00;;;18.89;58.19;101271.00;4860241;29;20347;-63
2021/12/31 07:05:15;;;;;;;4.00;3.20;;;16.20;78.80;;;18.89;57.84;101279.00;4860682;29;20287;-63
2021/12/31 07:07:43;;;;;;;4.73;3.27;;;16.20;78.80;;;18.88;57.96;101279.22;4860355;29;20701;-63
2021/12/31 07:10:13;;;;;;;2.53;2.33;;;16.20;79.00;;;18.88;57.73;101273.88;4860343;29;20245;-63
2021/12/31 07:12:40;;;;;;;5.77;2.80;;;16.20;78.60;;;18.87;58.06;101267.72;4859963;29;20205;-64
2021/12/31 07:15:09;;;;;;;5.13;3.33;;;16.20;78.50;;;18.86;57.57;101265.28;4859826;29;20639;-62
2021/12/31 07:17:36;;;;;;;4.93;2.50;;;16.20;78.40;;;18.87;57.59;101257.03;4860261;29;20197;-63
2021/12/31 07:20:05;;;;;;;2.77;2.27;;;16.20;79.10;;;18.88;57.48;101264.03;4860283;29;20225;-63
2021/12/31 07:22:33;;;;;;;6.30;2.43;;;16.20;78.30;;;18.90;57.71;101267.28;4859711;29;20201;-63
2021/12/31 07:25:03;;;;;;;2.67;2.27;;;16.20;78.20;;;18.92;57.27;101280.44;4860083;29;20201;-64
2021/12/31 07:27:32;;;;;;;3.03;2.13;;;16.20;78.20;;;18.92;57.70;101270.56;4858951;29;20203;-63
2021/12/31 07:30:00;;;;;;;3.47;2.43;;;16.20;78.40;;;18.91;57.57;101268.13;4859953;29;20193;-63
2021/12/31 07:32:27;;;;;;;2.93;2.50;;;16.20;78.40;;;18.90;57.50;101271.81;4859003;29;20229;-63
2021/12/31 07:34:54;;;;;;;6.63;3.03;;;16.20;78.40;;;18.86;57.43;101265.28;4859705;29;20203;-63
2021/12/31 07:37:22;;;;;;;4.50;2.87;;;16.20;78.40;;;18.84;57.70;101278.84;4860086;29;20200;-63
2021/12/31 07:39:53;;;;;;;2.73;2.07;;;16.20;78.50;;;18.85;57.61;101275.13;4859723;29;20228;-64
2021/12/31 07:42:24;;;;;;;3.27;2.57;;;16.20;78.70;;;18.85;57.47;101269.78;4859656;29;20201;-64
2021/12/31 07:44:52;;;;;;;3.60;3.00;;;16.10;78.70;;;18.85;58.11;101280.44;4860278;29;20204;-63
2021/12/31 07:47:19;;;;;;;5.57;3.03;;;16.10;78.70;;;18.85;57.66;101277.78;4858244;29;20216;-63
2021/12/31 07:49:47;;;;;;;3.20;2.93;;;16.10;78.90;;;18.79;57.58;101270.66;4860171;29;20293;-63
2021/12/31 07:52:14;;;;;;;2.87;2.43;;;16.10;78.80;;;18.77;57.73;101266.56;4859867;29;20193;-63
2021/12/31 07:54:41;;;;;;;3.13;2.60;;;16.10;78.80;;;18.74;58.12;101272.31;4859567;29;20224;-63
2021/12/31 07:57:09;;;;;;;4.67;2.20;;;16.10;78.60;;;18.73;57.99;101271.50;4859799;29;20280;-63
2021/12/31 07:59:38;;;;;;;5.43;2.70;;;16.00;78.60;;;18.72;57.90;101264.56;4859777;29;20225;-63
2021/12/31 08:02:06;;;;;;;2.60;2.40;;;16.10;78.60;;;18.71;57.78;101270.91;4859904;29;20200;-64
2021/12/31 08:04:34;;;;;;;3.97;2.30;;;16.00;78.40;;;18.70;58.08;101277.28;4859054;29;20316;-64
2021/12/31 08:07:02;;;;;;;5.53;2.60;;;16.00;78.50;;;18.72;57.72;101282.41;4860123;29;20510;-63
2021/12/31 08:09:29;;;;;;;5.37;2.43;;;16.00;78.40;;;18.71;57.89;101289.56;4863600;29;20193;-63
2021/12/31 08:11:56;;;;;;;5.37;2.63;;;16.00;78.50;;;18.71;57.57;101294.91;4864055;29;20291;-63
2021/12/31 08:14:24;;;;;;;3.53;2.30;;;16.00;78.40;;;18.72;57.82;101285.06;4863438;29;20228;-64
2021/12/31 08:16:53;;;;;;;4.10;2.60;;;16.00;78.50;;;18.73;57.67;101281.38;4864413;29;20280;-65
2021/12/31 08:19:20;;;;;;;3.43;2.33;;;16.00;78.40;;;18.72;57.28;101277.06;4864130;29;20220;-65
2021/12/31 08:21:48;;;;;;;5.03;2.67;;;16.00;78.20;;;18.70;57.53;101277.28;4863157;29;20199;-63
2021/12/31 08:24:15;;;;;;;6.50;2.50;;;16.00;78.10;;;18.69;57.76;101280.16;4863001;29;20228;-63
2021/12/31 08:26:43;;;;;;;2.80;2.37;;;16.00;78.00;;;18.67;57.64;101274.22;4863172;29;20586;-64
2021/12/31 08:29:12;;;;;;;3.80;2.47;;;16.10;77.90;;;18.68;57.55;101268.69;4863555;29;20196;-63
2021/12/31 08:31:40;;;;;;;4.20;2.27;;;16.00;77.70;;;18.70;57.40;101276.47;4863229;29;20280;-64
2021/12/31 08:34:10;;;;;;;5.20;2.40;;;16.00;77.80;;;18.71;57.18;101278.91;4862761;29;20264;-63
2021/12/31 08:36:38;;;;;;;2.90;2.47;;;16.00;77.70;;;18.75;57.15;101272.13;4862520;29;20203;-63
2021/12/31 08:39:07;;;;;;;3.00;2.50;;;16.00;77.50;;;18.75;56.64;101287.31;4863362;29;20344;-63
2021/12/31 08:41:36;;;;;;;3.10;2.73;;;16.00;77.50;;;18.76;56.96;101287.09;4862438;29;20638;-65
2021/12/31 08:44:15;;;;;;;4.17;2.83;;;16.10;77.50;;;18.77;56.53;101286.06;4862662;29;20223;-63
2021/12/31 08:46:44;;;;;;;6.37;3.00;;;16.10;77.30;;;18.80;56.82;101288.28;4862778;29;20362;-63
2021/12/31 08:49:13;;;;;;;2.67;2.47;;;16.00;77.00;;;18.80;56.85;101292.81;4862598;29;20203;-64
2021/12/31 08:51:41;;;;;;;3.53;2.63;;;16.10;77.20;;;18.82;56.51;101290.75;4862670;29;20232;-63
2021/12/31 08:54:08;;;;;;;5.17;2.40;;;16.10;77.00;;;18.83;56.47;101281.69;4862626;29;20670;-64
2021/12/31 08:56:35;;;;;;;3.00;2.73;;;16.10;76.90;;;18.85;56.49;101288.47;4862489;29;20216;-64
2021/12/31 08:59:03;;;;;;;3.17;2.50;;;16.20;76.80;;;18.90;56.44;101298.47;4862302;29;20216;-64
2021/12/31 09:01:30;;;;;;;7.23;2.70;;;16.20;76.80;;;18.92;56.03;101297.25;4862233;29;20296;-63
2021/12/31 09:03:58;;;;;;;3.47;2.67;;;16.10;76.30;;;18.95;56.02;101312.00;4861760;29;20227;-64
2021/12/31 09:06:27;;;;;;;5.87;2.80;;;16.20;76.40;;;18.97;55.64;101309.13;4862053;29;20205;-64
2021/12/31 09:08:54;;;;;;;3.43;2.73;;;16.20;76.30;;;18.98;55.93;101322.25;4860285;29;20263;-64
2021/12/31 09:11:21;;;;;;;3.83;2.50;;;16.20;76.30;;;19.01;55.71;101310.34;4862015;29;20192;-64
2021/12/31 09:13:49;;;;;;;3.87;2.57;;;16.20;76.10;;;19.01;55.96;101315.66;4861703;29;20295;-64
2021/12/31 09:16:16;;;;;;;5.57;2.67;;;16.20;75.80;;;19.00;55.61;101316.69;4862022;29;20558;-63
2021/12/31 09:18:44;;;;;;;6.67;2.53;;;16.30;75.80;;;19.01;55.52;101318.34;4861917;29;20279;-63
2021/12/31 09:21:11;;;;;;;3.43;2.40;;;16.30;75.70;;;19.02;55.79;101319.97;4859664;29;20691;-64
2021/12/31 09:23:40;;;;;;;4.33;2.50;;;16.30;75.80;;;19.04;55.57;101325.91;4861339;29;20295;-63
2021/12/31 09:26:07;;;;;;;2.70;2.50;;;16.30;75.50;;;19.04;55.30;101325.91;4861364;29;20204;-64
2021/12/31 09:28:34;;;;;;;5.70;2.90;;;16.30;75.20;;;19.04;55.26;101325.91;4861856;29;20200;-63
2021/12/31 09:31:08;;;;;;;3.33;2.40;;;16.30;75.30;;;19.04;55.65;101331.25;4861872;29;20718;-64
2021/12/31 09:33:36;;;;;;;7.03;3.00;;;16.30;75.10;;;19.04;55.16;101331.25;4861289;29;20706;-64
2021/12/31 09:36:04;;;;;;;4.93;2.30;;;16.30;74.90;;;19.06;54.91;101305.16;4861960;29;20300;-64
2021/12/31 09:38:32;;;;;;;2.73;2.53;;;16.40;75.00;;;19.06;54.90;101306.00;4861631;29;20207;-64
2021/12/31 09:41:00;;;;;;;5.63;3.00;;;16.40;75.00;;;19.06;54.87;101292.66;4861175;29;20224;-63
2021/12/31 09:43:28;;;;;;;4.10;2.80;;;16.40;74.80;;;19.07;55.03;101298.78;4861113;29;20303;-64
2021/12/31 09:45:55;;;;;;;3.93;2.50;;;16.40;74.90;;;19.06;55.46;101297.16;4861546;29;20622;-63
2021/12/31 09:48:24;;;;;;;4.33;2.90;;;16.40;74.70;;;19.08;54.75;101293.25;4860974;29;20200;-64
2021/12/31 09:50:55;;;;;;;4.17;2.87;;;16.40;74.30;;;19.08;55.12;101289.75;4861855;29;20192;-63
2021/12/31 09:53:26;;;;;;;2.93;2.60;;;16.40;74.30;;;19.08;55.19;101284.41;4861291;29;20296;-64
2021/12/31 09:55:55;;;;;;;4.97;2.80;;;16.40;74.50;;;19.10;55.13;101301.03;4860691;29;20208;-63
2021/12/31 09:58:27;;;;;;;4.87;2.53;;;16.40;74.40;;;19.11;54.75;101294.66;4861363;29;20279;-64
2021/12/31 10:01:01;;;;;;;3.73;2.93;;;16.40;74.30;;;19.13;54.47;101281.91;4861111;29;20220;-63
2021/12/31 10:03:32;;;;;;;4.00;2.83;;;16.40;74.30;;;19.11;54.68;101303.47;4860770;29;20216;-63
2021/12/31 10:06:05;;;;;;;2.70;2.30;;;16.40;74.20;;;19.10;54.77;101309.03;4861188;29;20207;-64
2021/12/31 10:08:42;;;;;;;5.23;2.43;;;16.40;74.20;;;19.09;54.64;101312.75;4861838;29;20283;-64
2021/12/31 10:11:11;;;;;;;2.97;2.50;;;16.40;74.30;;;19.12;54.84;101317.63;4861745;29;20192;-65
2021/12/31 10:13:43;;;;;;;2.33;2.13;;;16.40;74.20;;;19.14;54.46;101331.56;4860834;29;20220;-65
2021/12/31 10:16:22;;;;;;;3.83;2.30;;;16.40;74.30;;;19.18;54.63;101332.81;4861110;29;20204;-64
2021/12/31 10:19:04;;;;;;;5.07;2.60;;;16.40;74.30;;;19.21;54.60;101341.19;4843411;29;20197;-63
2021/12/31 10:21:38;;;;;;;5.00;2.50;;;16.50;74.20;;;19.26;54.05;101338.69;4842568;29;20248;-64
2021/12/31 10:24:25;;;;;;;3.67;2.53;;;16.50;74.10;;;19.26;54.03;101327.19;4842333;29;20232;-63